createdAt,value
2019-02-25T00:01:20.183Z,1.16
2019-02-25T00:03:50.808Z,1.18
2019-02-25T00:06:21.766Z,1.20
2019-02-25T00:08:53.042Z,1.10
2019-02-25T00:11:24.320Z,0.89
2019-02-25T00:13:55.738Z,0.87
2019-02-25T00:16:27.174Z,0.87
2019-02-25T00:18:58.460Z,0.96
2019-02-25T00:21:30.818Z,1.15
2019-02-25T00:24:02.370Z,0.88
2019-02-25T00:26:34.048Z,0.86
2019-02-25T00:29:05.554Z,0.98
2019-02-25T00:31:36.856Z,1.05
2019-02-25T00:34:08.168Z,0.89
2019-02-25T00:36:39.464Z,0.95
2019-02-25T00:39:10.815Z,0.95
2019-02-25T00:41:42.016Z,0.80
2019-02-25T00:44:13.714Z,0.90
2019-02-25T00:46:44.932Z,1.06
2019-02-25T00:49:16.243Z,0.87
2019-02-25T00:51:47.655Z,0.95
2019-02-25T00:54:19.028Z,1.05
2019-02-25T00:56:51.423Z,1.00
2019-02-25T00:59:22.733Z,0.81
2019-02-25T01:01:54.094Z,1.00
2019-02-25T01:04:25.540Z,1.08
2019-02-25T01:06:56.950Z,1.19
2019-02-25T01:09:28.312Z,1.13
2019-02-25T01:11:59.760Z,0.92
2019-02-25T01:14:31.211Z,1.06
2019-02-25T01:17:02.653Z,1.06
2019-02-25T01:19:34.061Z,1.18
2019-02-25T01:22:05.461Z,1.05
2019-02-25T01:24:36.783Z,1.02
2019-02-25T01:27:08.034Z,0.92
2019-02-25T01:29:39.413Z,0.98
2019-02-25T01:32:10.859Z,0.78
2019-02-25T01:34:42.250Z,0.79
2019-02-25T01:37:13.713Z,0.86
2019-02-25T01:39:45.244Z,0.85
2019-02-25T01:42:18.189Z,1.04
2019-02-25T01:44:49.539Z,0.87
2019-02-25T01:47:20.838Z,0.87
2019-02-25T01:49:52.135Z,0.87
2019-02-25T01:52:23.500Z,0.94
2019-02-25T01:54:54.743Z,0.78
2019-02-25T01:57:25.991Z,0.78
2019-02-25T01:59:57.322Z,0.82
2019-02-25T02:02:28.717Z,0.94
2019-02-25T02:04:59.998Z,0.97
2019-02-25T02:07:31.429Z,0.97
2019-02-25T02:10:02.939Z,1.00
2019-02-25T02:12:34.333Z,0.85
2019-02-25T02:15:09.312Z,0.95
2019-02-25T02:17:41.906Z,1.04
2019-02-25T02:20:15.269Z,0.90
2019-02-25T02:22:46.527Z,1.04
2019-02-25T02:25:17.925Z,0.88
2019-02-25T02:27:49.324Z,0.88
2019-02-25T02:30:21.695Z,0.86
2019-02-25T02:32:53.063Z,0.96
2019-02-25T02:35:24.444Z,0.94
2019-02-25T02:37:55.868Z,0.94
2019-02-25T02:40:27.362Z,0.89
2019-02-25T02:43:00.464Z,0.91
2019-02-25T02:45:34.996Z,1.06
2019-02-25T02:48:12.289Z,1.04
2019-02-25T02:50:43.745Z,1.01
2019-02-25T02:53:15.116Z,1.01
2019-02-25T02:55:46.496Z,1.05
2019-02-25T02:58:17.925Z,1.09
2019-02-25T03:00:49.285Z,0.87
2019-02-25T03:03:21.619Z,0.93
2019-02-25T03:05:53.181Z,1.05
2019-02-25T03:08:24.518Z,1.01
2019-02-25T03:10:55.915Z,0.95
2019-02-25T03:13:27.344Z,1.01
2019-02-25T03:15:58.802Z,1.14
2019-02-25T03:18:30.329Z,0.92
2019-02-25T03:21:01.695Z,0.97
2019-02-25T03:23:33.071Z,0.95
2019-02-25T03:26:04.527Z,0.86
2019-02-25T03:28:35.884Z,0.85
2019-02-25T03:31:07.346Z,0.88
2019-02-25T03:33:39.073Z,1.01
2019-02-25T03:36:10.520Z,0.85
2019-02-25T03:38:41.999Z,0.77
2019-02-25T03:41:13.722Z,0.64
2019-02-25T03:43:45.042Z,0.62
2019-02-25T03:46:16.432Z,0.62
2019-02-25T03:48:47.931Z,0.74
2019-02-25T03:51:19.291Z,0.70
2019-02-25T03:53:50.690Z,0.67
2019-02-25T03:56:22.156Z,0.67
2019-02-25T03:58:53.590Z,0.68
2019-02-25T04:01:24.976Z,0.63
2019-02-25T04:03:56.380Z,0.81
2019-02-25T04:06:27.716Z,0.62
2019-02-25T04:08:58.995Z,0.70
2019-02-25T04:11:30.400Z,0.77
2019-02-25T04:14:01.820Z,0.75
2019-02-25T04:16:32.958Z,0.53
2019-02-25T04:19:04.319Z,0.67
2019-02-25T04:21:35.594Z,0.85
2019-02-25T04:24:06.853Z,0.60
2019-02-25T04:26:38.163Z,0.83
2019-02-25T04:29:09.515Z,0.84
2019-02-25T04:31:40.816Z,0.87
2019-02-25T04:34:12.132Z,0.66
2019-02-25T04:36:44.463Z,0.82
2019-02-25T04:39:15.724Z,0.67
2019-02-25T04:41:48.312Z,0.88
2019-02-25T04:44:19.653Z,0.86
2019-02-25T04:46:50.866Z,0.77
2019-02-25T04:49:22.346Z,0.68
2019-02-25T04:51:53.649Z,0.82
2019-02-25T04:54:25.135Z,0.82
2019-02-25T04:56:56.388Z,0.77
2019-02-25T04:59:27.714Z,0.86
2019-02-25T05:01:59.060Z,0.98
2019-02-25T05:04:30.407Z,0.78
2019-02-25T05:07:01.805Z,0.78
2019-02-25T05:09:33.145Z,0.92
2019-02-25T05:12:04.466Z,1.05
2019-02-25T05:14:35.656Z,0.89
2019-02-25T05:17:07.986Z,0.66
2019-02-25T05:19:39.290Z,0.68
2019-02-25T05:22:10.561Z,0.94
2019-02-25T05:24:42.933Z,0.91
2019-02-25T05:27:14.469Z,0.98
2019-02-25T05:29:45.849Z,0.92
2019-02-25T05:32:17.194Z,0.86
2019-02-25T05:34:48.782Z,0.98
2019-02-25T05:37:20.063Z,1.04
2019-02-25T05:39:51.386Z,1.09
2019-02-25T05:42:23.335Z,0.97
2019-02-25T05:44:55.201Z,1.06
2019-02-25T05:47:26.895Z,1.21
2019-02-25T05:49:58.230Z,0.89
2019-02-25T05:52:29.645Z,0.89
2019-02-25T05:55:00.993Z,1.00
2019-02-25T05:57:33.540Z,0.83
2019-02-25T06:00:08.169Z,0.94
2019-02-25T06:02:39.681Z,0.93
2019-02-25T06:05:11.055Z,1.02
2019-02-25T06:07:42.525Z,0.88
2019-02-25T06:10:14.427Z,1.05
2019-02-25T06:12:45.822Z,1.11
2019-02-25T06:15:19.493Z,0.98
2019-02-25T06:17:51.354Z,1.11
2019-02-25T06:20:22.683Z,1.41
2019-02-25T06:22:54.136Z,1.28
2019-02-25T06:25:25.533Z,1.18
2019-02-25T06:27:57.030Z,1.14
2019-02-25T06:30:28.566Z,1.14
2019-02-25T06:33:00.023Z,1.24
2019-02-25T06:35:31.428Z,1.10
2019-02-25T06:38:03.025Z,1.26
2019-02-25T06:40:34.453Z,1.24
2019-02-25T06:43:05.972Z,1.41
2019-02-25T06:45:37.766Z,1.31
2019-02-25T06:48:09.205Z,1.32
2019-02-25T06:50:40.700Z,1.17
2019-02-25T06:53:12.127Z,1.17
2019-02-25T06:55:43.572Z,1.34
2019-02-25T06:58:15.214Z,1.37
2019-02-25T07:00:46.627Z,1.48
2019-02-25T07:03:18.092Z,1.61
2019-02-25T07:05:51.016Z,1.64
2019-02-25T07:08:27.088Z,1.47
2019-02-25T07:11:03.016Z,1.42
2019-02-25T07:13:37.113Z,1.27
2019-02-25T07:16:10.051Z,1.51
2019-02-25T07:18:59.528Z,1.57
2019-02-25T07:21:44.775Z,1.67
2019-02-25T07:24:17.838Z,1.57
2019-02-25T07:27:07.205Z,1.60
2019-02-25T07:29:43.208Z,1.64
2019-02-25T07:32:30.106Z,1.87
2019-02-25T07:35:11.844Z,1.87
2019-02-25T07:37:53.840Z,1.64
2019-02-25T07:40:26.777Z,1.73
2019-02-25T07:43:08.742Z,1.65
2019-02-25T07:45:43.282Z,1.57
2019-02-25T07:48:16.405Z,1.53
2019-02-25T07:50:55.151Z,1.52
2019-02-25T07:53:28.172Z,1.33
2019-02-25T07:56:06.223Z,1.70
2019-02-25T07:58:49.163Z,1.74
2019-02-25T08:01:24.723Z,1.85
2019-02-25T08:03:57.342Z,1.84
2019-02-25T08:06:39.695Z,1.96
2019-02-25T08:09:15.708Z,2.02
2019-02-25T08:11:51.793Z,2.19
2019-02-25T08:14:30.715Z,1.92
2019-02-25T08:17:04.653Z,2.23
2019-02-25T08:19:40.855Z,2.28
2019-02-25T08:22:28.933Z,2.59
2019-02-25T08:25:18.870Z,2.83
2019-02-25T08:27:51.863Z,2.77
2019-02-25T08:30:39.885Z,2.76
2019-02-25T08:33:15.838Z,3.01
2019-02-25T08:36:09.868Z,3.38
2019-02-25T08:38:59.182Z,3.51
2019-02-25T08:41:36.254Z,4.25
2019-02-25T08:44:18.057Z,5.22
2019-02-25T08:46:57.094Z,5.67
2019-02-25T08:49:29.899Z,5.66
2019-02-25T08:52:01.317Z,5.20
2019-02-25T08:54:32.672Z,4.92
2019-02-25T08:57:03.997Z,5.23
2019-02-25T08:59:36.865Z,5.33
2019-02-25T09:02:08.403Z,5.69
2019-02-25T09:04:40.245Z,5.45
2019-02-25T09:07:11.772Z,4.91
2019-02-25T09:09:43.219Z,4.43
2019-02-25T09:12:14.897Z,4.82
2019-02-25T09:14:46.237Z,6.04
2019-02-25T09:17:19.311Z,6.55
2019-02-25T09:19:50.036Z,6.54
2019-02-25T09:22:21.238Z,5.45
2019-02-25T09:24:52.706Z,4.69
2019-02-25T09:27:24.286Z,4.87
2019-02-25T09:29:55.697Z,4.68
2019-02-25T09:32:29.711Z,4.55
2019-02-25T09:35:01.165Z,4.66
2019-02-25T09:37:32.610Z,4.34
2019-02-25T09:40:08.344Z,4.83
2019-02-25T09:42:39.694Z,4.86
2019-02-25T09:45:17.920Z,5.33
2019-02-25T09:47:49.369Z,5.20
2019-02-25T09:50:22.579Z,4.69
2019-02-25T09:52:53.929Z,4.62
2019-02-25T09:55:25.416Z,4.13
2019-02-25T09:57:56.868Z,4.31
2019-02-25T10:00:28.232Z,3.90
2019-02-25T10:03:01.468Z,3.65
2019-02-25T10:05:33.849Z,3.73
2019-02-25T10:08:05.353Z,3.88
2019-02-25T10:10:36.889Z,3.84
2019-02-25T10:13:08.301Z,4.07
2019-02-25T10:15:39.867Z,3.95
2019-02-25T10:18:13.358Z,3.82
2019-02-25T10:20:44.926Z,3.79
2019-02-25T10:23:16.502Z,3.64
2019-02-25T10:25:47.891Z,3.83
2019-02-25T10:28:19.344Z,3.44
2019-02-25T10:30:53.115Z,3.41
2019-02-25T10:33:25.848Z,3.50
2019-02-25T10:35:57.313Z,3.62
2019-02-25T10:38:29.789Z,3.54
2019-02-25T10:41:02.211Z,3.46
2019-02-25T10:43:39.727Z,3.57
2019-02-25T10:46:13.471Z,3.56
2019-02-25T10:48:44.699Z,3.87
2019-02-25T10:51:16.188Z,3.98
2019-02-25T10:53:49.538Z,3.91
2019-02-25T10:56:26.009Z,3.78
2019-02-25T10:58:58.136Z,3.72
2019-02-25T11:01:30.697Z,3.71
2019-02-25T11:04:02.314Z,3.72
2019-02-25T11:06:35.541Z,3.85
2019-02-25T11:09:25.933Z,4.07
2019-02-25T11:11:59.943Z,4.03
2019-02-25T11:14:31.619Z,3.82
2019-02-25T11:17:07.747Z,3.73
2019-02-25T11:19:39.279Z,3.76
2019-02-25T11:22:12.602Z,3.57
2019-02-25T11:24:49.780Z,3.73
2019-02-25T11:27:20.881Z,3.43
2019-02-25T11:29:52.378Z,3.48
2019-02-25T11:32:25.914Z,3.29
2019-02-25T11:34:56.960Z,3.28
2019-02-25T11:37:28.574Z,3.27
2019-02-25T11:40:03.899Z,3.40
2019-02-25T11:42:34.976Z,3.28
2019-02-25T11:45:20.757Z,3.35
2019-02-25T11:47:52.104Z,3.16
2019-02-25T11:50:23.575Z,3.29
2019-02-25T11:52:54.922Z,3.47
2019-02-25T11:55:26.395Z,3.50
2019-02-25T11:57:57.912Z,3.35
2019-02-25T12:00:30.315Z,3.43
2019-02-25T12:03:01.711Z,3.40
2019-02-25T12:05:33.388Z,3.15
2019-02-25T12:08:04.756Z,3.04
2019-02-25T12:10:36.404Z,3.35
2019-02-25T12:13:17.986Z,3.38
2019-02-25T12:15:55.471Z,3.41
2019-02-25T12:18:28.614Z,3.50
2019-02-25T12:21:03.762Z,3.35
2019-02-25T12:23:39.054Z,3.44
2019-02-25T12:26:11.066Z,3.34
2019-02-25T12:28:42.554Z,3.51
2019-02-25T12:31:13.942Z,3.46
2019-02-25T12:33:45.464Z,3.48
2019-02-25T12:36:16.851Z,3.41
2019-02-25T12:38:48.262Z,3.43
2019-02-25T12:41:19.601Z,3.41
2019-02-25T12:43:50.935Z,3.38
2019-02-25T12:46:22.287Z,3.46
2019-02-25T12:48:53.926Z,3.39
2019-02-25T12:51:25.329Z,3.53
2019-02-25T12:53:56.772Z,3.68
2019-02-25T12:56:28.324Z,3.57
2019-02-25T12:58:59.872Z,3.64
2019-02-25T13:01:31.282Z,3.65
2019-02-25T13:04:02.679Z,3.66
2019-02-25T13:06:36.717Z,3.70
2019-02-25T13:09:11.354Z,3.64
2019-02-25T13:11:44.473Z,3.55
2019-02-25T13:14:15.860Z,3.49
2019-02-25T13:16:47.310Z,3.42
2019-02-25T13:19:18.653Z,3.35
2019-02-25T13:21:51.428Z,3.50
2019-02-25T13:24:22.761Z,3.42
2019-02-25T13:26:54.512Z,3.40
2019-02-25T13:29:26.052Z,3.38
2019-02-25T13:31:57.589Z,3.34
2019-02-25T13:34:29.226Z,3.45
2019-02-25T13:37:00.725Z,3.46
2019-02-25T13:39:35.178Z,3.44
2019-02-25T13:42:06.643Z,3.26
2019-02-25T13:44:38.247Z,3.33
2019-02-25T13:47:09.774Z,3.32
2019-02-25T13:49:41.224Z,3.44
2019-02-25T13:52:13.022Z,3.45
2019-02-25T13:54:44.541Z,3.42
2019-02-25T13:57:16.600Z,3.53
2019-02-25T13:59:48.060Z,3.50
2019-02-25T14:02:19.891Z,3.42
2019-02-25T14:04:51.416Z,3.59
2019-02-25T14:07:23.596Z,3.56
2019-02-25T14:09:56.466Z,3.65
2019-02-25T14:12:28.953Z,3.69
2019-02-25T14:15:01.329Z,3.42
2019-02-25T14:17:32.637Z,3.53
2019-02-25T14:20:07.363Z,3.43
2019-02-25T14:22:38.781Z,3.38
2019-02-25T14:25:12.774Z,3.49
2019-02-25T14:27:46.462Z,3.51
2019-02-25T14:30:20.800Z,3.56
2019-02-25T14:32:53.488Z,3.57
2019-02-25T14:35:29.053Z,3.51
2019-02-25T14:38:07.677Z,3.66
2019-02-25T14:40:39.373Z,3.48
2019-02-25T14:43:12.605Z,3.57
2019-02-25T14:45:45.962Z,3.65
2019-02-25T14:48:20.361Z,3.55
2019-02-25T14:50:48.796Z,3.51
2019-02-25T14:53:20.329Z,3.52
2019-02-25T14:55:53.101Z,3.44
2019-02-25T14:58:24.818Z,3.48
2019-02-25T15:00:56.610Z,3.54
2019-02-25T15:03:29.155Z,3.67
2019-02-25T15:06:01.515Z,3.61
2019-02-25T15:08:33.048Z,3.57
2019-02-25T15:11:06.604Z,3.56
2019-02-25T15:13:39.110Z,3.48
2019-02-25T15:16:10.027Z,3.59
2019-02-25T15:18:41.536Z,3.46
2019-02-25T15:21:15.686Z,3.46
2019-02-25T15:23:46.059Z,3.50
2019-02-25T15:26:19.857Z,3.55
2019-02-25T15:28:53.687Z,3.42
2019-02-25T15:31:24.189Z,3.49
2019-02-25T15:33:55.732Z,3.45
2019-02-25T15:36:28.962Z,3.37
2019-02-25T15:39:00.790Z,3.51
2019-02-25T15:41:33.049Z,3.51
2019-02-25T15:44:04.891Z,3.40
2019-02-25T15:46:37.250Z,3.47
2019-02-25T15:49:08.693Z,3.45
2019-02-25T15:51:41.576Z,3.40
2019-02-25T15:54:13.305Z,3.47
2019-02-25T15:56:44.802Z,3.43
2019-02-25T15:59:16.263Z,3.38
2019-02-25T16:01:47.895Z,3.40
2019-02-25T16:04:19.473Z,3.53
2019-02-25T16:06:57.425Z,3.58
2019-02-25T16:09:27.701Z,3.67
2019-02-25T16:12:00.993Z,3.52
2019-02-25T16:14:33.362Z,3.55
2019-02-25T16:17:04.850Z,3.58
2019-02-25T16:19:41.315Z,3.54
2019-02-25T16:22:11.379Z,3.65
2019-02-25T16:24:43.688Z,3.59
2019-02-25T16:27:16.794Z,3.57
2019-02-25T16:29:48.447Z,3.64
2019-02-25T16:32:21.503Z,3.57
2019-02-25T16:34:55.577Z,3.63
2019-02-25T16:37:29.113Z,3.58
2019-02-25T16:40:03.120Z,3.66
2019-02-25T16:42:34.767Z,3.61
2019-02-25T16:45:11.805Z,3.63
2019-02-25T16:47:46.046Z,3.58
2019-02-25T16:50:18.244Z,3.55
2019-02-25T16:52:51.027Z,3.61
2019-02-25T16:55:27.700Z,3.60
2019-02-25T16:58:01.815Z,3.71
2019-02-25T17:00:35.444Z,3.56
2019-02-25T17:03:08.225Z,3.54
2019-02-25T17:05:42.310Z,3.50
2019-02-25T17:08:14.880Z,3.49
2019-02-25T17:10:45.657Z,3.56
2019-02-25T17:13:17.142Z,3.59
2019-02-25T17:15:48.711Z,3.57
2019-02-25T17:18:22.893Z,3.49
2019-02-25T17:20:53.521Z,3.45
2019-02-25T17:23:27.460Z,3.42
2019-02-25T17:25:59.261Z,3.28
2019-02-25T17:28:30.863Z,3.40
2019-02-25T17:31:02.345Z,3.39
2019-02-25T17:33:34.952Z,3.24
2019-02-25T17:36:07.660Z,3.12
2019-02-25T17:38:41.114Z,3.12
2019-02-25T17:41:13.512Z,2.89
2019-02-25T17:43:45.051Z,2.96
2019-02-25T17:46:17.228Z,2.93
2019-02-25T17:48:48.600Z,2.85
2019-02-25T17:51:20.836Z,2.75
2019-02-25T17:53:54.714Z,2.71
2019-02-25T17:56:26.947Z,2.63
2019-02-25T17:59:01.019Z,2.61
2019-02-25T18:01:33.536Z,2.64
2019-02-25T18:04:06.663Z,2.66
2019-02-25T18:06:41.379Z,2.78
2019-02-25T18:09:14.250Z,2.64
2019-02-25T18:11:47.695Z,2.64
2019-02-25T18:14:19.792Z,2.51
2019-02-25T18:16:51.453Z,2.46
2019-02-25T18:19:24.893Z,2.40
2019-02-25T18:21:58.311Z,2.31
2019-02-25T18:24:32.398Z,2.33
2019-02-25T18:27:04.416Z,2.28
2019-02-25T18:29:36.191Z,2.33
2019-02-25T18:32:08.458Z,2.29
2019-02-25T18:34:40.686Z,2.35
2019-02-25T18:37:13.473Z,2.32
2019-02-25T18:39:45.663Z,2.30
2019-02-25T18:42:18.521Z,2.31
2019-02-25T18:44:51.355Z,2.33
2019-02-25T18:47:25.200Z,2.19
2019-02-25T18:49:57.142Z,2.20
2019-02-25T18:52:31.506Z,2.16
2019-02-25T18:55:04.375Z,2.20
2019-02-25T18:57:35.638Z,2.10
2019-02-25T19:00:10.573Z,2.07
2019-02-25T19:02:42.738Z,2.00
2019-02-25T19:05:14.581Z,1.95
2019-02-25T19:07:48.821Z,2.01
2019-02-25T19:10:21.022Z,1.96
2019-02-25T19:12:56.356Z,1.98
2019-02-25T19:15:28.393Z,1.85
2019-02-25T19:18:00.129Z,1.83
2019-02-25T19:20:31.767Z,1.84
2019-02-25T19:23:05.756Z,1.96
2019-02-25T19:25:37.063Z,1.87
2019-02-25T19:28:08.605Z,1.93
2019-02-25T19:30:39.982Z,1.98
2019-02-25T19:33:11.732Z,1.99
2019-02-25T19:35:43.331Z,1.95
2019-02-25T19:38:15.860Z,1.98
2019-02-25T19:40:51.217Z,2.07
2019-02-25T19:43:21.638Z,2.01
2019-02-25T19:45:52.960Z,2.02
2019-02-25T19:48:28.222Z,2.13
2019-02-25T19:50:59.042Z,2.15
2019-02-25T19:53:31.695Z,2.18
2019-02-25T19:56:02.508Z,2.16
2019-02-25T19:58:35.873Z,2.22
2019-02-25T20:01:09.004Z,2.14
2019-02-25T20:03:42.506Z,2.15
2019-02-25T20:06:16.245Z,2.14
2019-02-25T20:08:48.664Z,2.06
2019-02-25T20:11:20.631Z,2.03
2019-02-25T20:13:51.995Z,2.02
2019-02-25T20:16:25.980Z,1.96
2019-02-25T20:18:56.046Z,2.09
2019-02-25T20:21:30.507Z,2.02
2019-02-25T20:24:01.759Z,2.07
2019-02-25T20:26:33.266Z,2.15
2019-02-25T20:29:06.257Z,2.14
2019-02-25T20:31:37.630Z,2.13
2019-02-25T20:34:08.892Z,2.30
2019-02-25T20:36:40.648Z,2.32
2019-02-25T20:39:11.882Z,2.26
2019-02-25T20:41:45.804Z,2.26
2019-02-25T20:44:18.579Z,2.26
2019-02-25T20:46:52.684Z,2.36
2019-02-25T20:49:24.929Z,2.31
2019-02-25T20:51:56.696Z,2.27
2019-02-25T20:54:28.808Z,2.41
2019-02-25T20:57:00.414Z,2.33
2019-02-25T20:59:33.119Z,2.44
2019-02-25T21:02:07.462Z,2.23
2019-02-25T21:04:38.717Z,2.35
2019-02-25T21:07:11.505Z,2.59
2019-02-25T21:09:44.088Z,2.39
2019-02-25T21:12:17.675Z,2.34
2019-02-25T21:14:48.482Z,2.42
2019-02-25T21:17:19.761Z,2.59
2019-02-25T21:19:50.939Z,2.52
2019-02-25T21:22:23.350Z,2.50
2019-02-25T21:24:55.890Z,2.54
2019-02-25T21:27:30.105Z,2.57
2019-02-25T21:30:01.574Z,2.58
2019-02-25T21:32:34.244Z,2.48
2019-02-25T21:35:09.024Z,2.43
2019-02-25T21:37:43.359Z,2.54
2019-02-25T21:40:15.376Z,2.59
2019-02-25T21:42:49.297Z,2.58
2019-02-25T21:45:20.616Z,2.46
2019-02-25T21:47:54.601Z,2.46
2019-02-25T21:50:28.382Z,2.32
2019-02-25T21:52:58.221Z,2.46
2019-02-25T21:55:31.001Z,2.27
2019-02-25T21:58:04.365Z,2.29
2019-02-25T22:00:37.483Z,2.31
2019-02-25T22:03:10.268Z,2.08
2019-02-25T22:05:40.808Z,2.22
2019-02-25T22:08:12.216Z,2.23
2019-02-25T22:10:44.145Z,2.39
2019-02-25T22:13:18.352Z,2.49
2019-02-25T22:15:50.649Z,2.59
2019-02-25T22:18:21.984Z,2.57
2019-02-25T22:20:53.552Z,2.70
2019-02-25T22:23:26.148Z,2.85
2019-02-25T22:25:58.226Z,2.76
2019-02-25T22:28:30.526Z,2.71
2019-02-25T22:31:02.429Z,2.83
2019-02-25T22:33:33.619Z,2.79
2019-02-25T22:36:05.114Z,2.81
2019-02-25T22:38:36.633Z,2.87
2019-02-25T22:41:07.992Z,2.83
2019-02-25T22:43:41.320Z,2.81
2019-02-25T22:46:12.474Z,2.80
2019-02-25T22:48:45.556Z,2.82
2019-02-25T22:51:19.447Z,2.92
2019-02-25T22:53:50.322Z,2.94
2019-02-25T22:56:23.718Z,2.96
2019-02-25T22:58:56.592Z,3.03
2019-02-25T23:01:28.337Z,3.13
2019-02-25T23:03:59.678Z,3.14
2019-02-25T23:06:31.134Z,3.21
2019-02-25T23:09:02.692Z,3.10
2019-02-25T23:11:35.701Z,3.11
2019-02-25T23:14:07.765Z,3.12
2019-02-25T23:16:41.588Z,3.24
2019-02-25T23:19:13.742Z,3.39
2019-02-25T23:21:45.099Z,3.38
2019-02-25T23:24:16.310Z,3.41
2019-02-25T23:26:48.667Z,3.36
2019-02-25T23:29:21.736Z,3.41
2019-02-25T23:31:52.685Z,3.40
2019-02-25T23:34:23.898Z,3.43
2019-02-25T23:36:56.237Z,3.46
2019-02-25T23:39:27.795Z,3.29
2019-02-25T23:42:00.610Z,3.23
2019-02-25T23:44:32.149Z,3.35
2019-02-25T23:47:04.438Z,3.27
2019-02-25T23:49:36.551Z,3.36
2019-02-25T23:52:08.500Z,3.18
2019-02-25T23:54:43.352Z,3.23
2019-02-25T23:57:14.683Z,3.08
2019-02-25T23:59:47.058Z,3.19
